Time;durP1;ratioP1;P1;durP2;ratioP2;P2;SDS_P1;SDS_P2;PMS_P1;PMS_P2;Temp;Humidity;BMP_temperature;BMP_pressure;BME280_temperature;BME280_humidity;BME280_pressure;Samples;Min_cycle;Max_cycle;Signal;HPM_P1;HPM_P2
2021/12/21 00:00:27;;;;;;;12.10;6.07;;;3.80;68.70;;;;;;4996259;28;20049;-70
2021/12/21 00:02:53;;;;;;;12.97;6.73;;;3.70;67.80;;;;;;4996040;28;20054;-70
2021/12/21 00:05:21;;;;;;;11.17;6.30;;;3.70;67.70;;;;;;4996045;28;20438;-70
2021/12/21 00:07:49;;;;;;;11.10;6.57;;;3.70;68.20;;;;;;4996019;28;20065;-70
2021/12/21 00:10:18;;;;;;;12.37;6.17;;;3.70;68.10;;;;;;4996054;28;20033;-70
2021/12/21 00:13:02;;;;;;;11.33;6.40;;;3.70;67.80;;;;;;4996313;28;20062;-70
2021/12/21 00:21:20;;;;;;;10.53;6.70;;;3.60;68.60;;;;;;4995921;28;20502;-70
2021/12/21 00:23:36;;;;;;;11.23;7.17;;;3.60;68.60;;;;;;4990241;28;20034;-70
2021/12/21 00:26:02;;;;;;;17.03;10.20;;;3.70;67.40;;;;;;4995628;28;20027;-71
2021/12/21 00:28:33;;;;;;;14.43;8.33;;;3.80;66.60;;;;;;4995648;28;20037;-70
2021/12/21 00:30:58;;;;;;;15.40;9.20;;;3.70;67.60;;;;;;4995719;28;20030;-70
2021/12/21 00:33:24;;;;;;;12.43;8.13;;;3.50;68.30;;;;;;4995519;28;20384;-69
2021/12/21 00:35:50;;;;;;;15.30;9.53;;;3.40;68.70;;;;;;4995741;28;20038;-70
2021/12/21 00:38:15;;;;;;;16.03;9.70;;;3.40;68.40;;;;;;4995681;28;20030;-70
2021/12/21 00:40:41;;;;;;;11.63;7.87;;;3.40;68.40;;;;;;4995376;28;20109;-70
2021/12/21 00:43:07;;;;;;;19.33;8.17;;;3.20;69.30;;;;;;4995165;28;20764;-70
2021/12/21 00:45:33;;;;;;;12.53;7.80;;;3.20;69.80;;;;;;4995530;28;20026;-70
2021/12/21 00:47:59;;;;;;;11.87;6.97;;;3.10;70.20;;;;;;4995535;28;20123;-70
2021/12/21 00:50:25;;;;;;;10.80;6.47;;;3.00;70.60;;;;;;4995460;28;20034;-70
2021/12/21 00:52:53;;;;;;;10.00;5.70;;;3.00;70.70;;;;;;4995123;28;20018;-70
2021/12/21 00:55:21;;;;;;;9.67;6.07;;;2.90;70.70;;;;;;4995062;28;20039;-70
2021/12/21 00:57:47;;;;;;;9.13;6.00;;;2.90;71.20;;;;;;4995022;28;20482;-70
2021/12/21 01:00:14;;;;;;;10.07;5.87;;;2.90;71.10;;;;;;4995022;28;20410;-70
2021/12/21 01:02:42;;;;;;;9.27;5.93;;;2.90;70.70;;;;;;4994683;28;20109;-70
2021/12/21 01:05:17;;;;;;;9.97;6.20;;;2.90;70.80;;;;;;4994890;28;20033;-70
2021/12/21 01:07:46;;;;;;;9.17;5.60;;;2.90;71.40;;;;;;4994774;28;20062;-70
2021/12/21 01:17:57;;;;;;;8.83;5.00;;;3.20;69.50;;;;;;4994756;28;20030;-71
2021/12/21 01:25:54;;;;;;;9.47;4.87;;;3.40;68.30;;;;;;4994462;28;20505;-70
2021/12/21 01:28:31;;;;;;;8.30;5.03;;;3.30;68.50;;;;;;4994389;28;20490;-70
2021/12/21 01:31:18;;;;;;;9.43;5.00;;;3.30;68.40;;;;;;4994594;28;20478;-70
2021/12/21 01:36:19;;;;;;;6.87;4.73;;;3.30;68.60;;;;;;4994555;28;20097;-70
2021/12/21 01:38:57;;;;;;;11.37;5.60;;;3.30;68.90;;;;;;4994346;28;20432;-70
2021/12/21 01:41:34;;;;;;;9.13;5.60;;;3.30;68.80;;;;;;4994687;28;20034;-70
2021/12/21 01:52:01;;;;;;;8.03;5.53;;;3.60;68.50;;;;;;4994669;28;20049;-70
2021/12/21 01:54:26;;;;;;;9.03;5.93;;;3.60;67.90;;;;;;4994495;28;20097;-70
2021/12/21 01:56:53;;;;;;;12.27;6.53;;;3.60;67.80;;;;;;4994372;28;20510;-70
2021/12/21 01:59:19;;;;;;;8.60;5.90;;;3.70;67.70;;;;;;4991171;28;20109;-70
2021/12/21 02:01:44;;;;;;;10.47;6.37;;;3.80;67.50;;;;;;4991282;28;20157;-70
2021/12/21 02:04:15;;;;;;;9.37;6.27;;;3.80;67.40;;;;;;4991532;28;20022;-70
2021/12/21 02:06:41;;;;;;;10.53;6.83;;;3.80;67.60;;;;;;4993540;28;20026;-70
2021/12/21 02:09:07;;;;;;;9.73;6.87;;;3.90;67.60;;;;;;4993952;28;20036;-70
2021/12/21 02:11:33;;;;;;;10.40;6.90;;;3.90;67.50;;;;;;4993901;28;20026;-70
2021/12/21 02:13:59;;;;;;;10.97;7.00;;;3.90;67.90;;;;;;4993528;28;20459;-69
2021/12/21 02:16:37;;;;;;;11.17;6.63;;;4.00;67.70;;;;;;4993761;28;20030;-71
2021/12/21 02:19:08;;;;;;;9.23;6.00;;;4.00;67.70;;;;;;4993691;28;20085;-70
2021/12/21 02:21:51;;;;;;;9.80;5.93;;;3.90;68.20;;;;;;4993590;28;20081;-70
2021/12/21 02:24:21;;;;;;;8.85;5.63;;;3.80;67.00;;;;;;4993585;28;20026;-70
2021/12/21 02:27:05;;;;;;;9.60;5.90;;;3.80;68.50;;;;;;4993603;28;20035;-70
2021/12/21 02:29:33;;;;;;;10.77;6.50;;;3.70;67.70;;;;;;4993542;28;20081;-70
2021/12/21 02:32:00;;;;;;;10.17;7.03;;;3.70;68.70;;;;;;4993706;28;20105;-70
2021/12/21 02:34:25;;;;;;;10.60;6.80;;;3.70;68.10;;;;;;4992940;28;20046;-71
2021/12/21 02:36:53;;;;;;;12.13;7.23;;;3.60;68.30;;;;;;4993308;28;20041;-71
2021/12/21 02:39:20;;;;;;;12.00;7.73;;;3.70;68.80;;;;;;4993531;28;20023;-70
2021/12/21 02:41:46;;;;;;;11.23;7.40;;;3.70;69.00;;;;;;4993643;28;20026;-71
2021/12/21 02:44:13;;;;;;;14.03;7.67;;;3.60;69.60;;;;;;4993186;28;20022;-70
2021/12/21 02:46:40;;;;;;;12.17;7.87;;;3.70;69.50;;;;;;4993169;28;20030;-71
2021/12/21 02:49:09;;;;;;;12.97;8.80;;;3.70;69.80;;;;;;4993544;28;20029;-70
2021/12/21 02:51:39;;;;;;;12.47;8.53;;;3.70;69.30;;;;;;4993410;28;20037;-70
2021/12/21 02:54:05;;;;;;;13.07;8.50;;;3.80;68.90;;;;;;4993243;28;20025;-71
2021/12/21 02:56:30;;;;;;;13.70;9.10;;;3.80;69.30;;;;;;4993354;28;20030;-71
2021/12/21 02:58:56;;;;;;;14.13;9.27;;;3.80;69.40;;;;;;4993241;28;20069;-70
2021/12/21 03:01:22;;;;;;;12.73;8.93;;;3.80;69.30;;;;;;4993480;28;20109;-71
2021/12/21 03:03:48;;;;;;;12.10;8.37;;;3.80;69.90;;;;;;4993450;28;20029;-70
2021/12/21 03:06:43;;;;;;;12.60;8.40;;;3.70;69.80;;;;;;4993480;28;20113;-71
2021/12/21 03:08:59;;;;;;;12.17;8.77;;;3.70;69.60;;;;;;4993269;28;20034;-70
2021/12/21 03:11:47;;;;;;;16.47;9.60;;;3.70;69.40;;;;;;4993220;28;20380;-71
2021/12/21 03:14:13;;;;;;;14.67;9.07;;;3.70;69.40;;;;;;4993116;28;20025;-69
2021/12/21 03:16:39;;;;;;;14.30;9.90;;;3.80;69.50;;;;;;4994144;28;20042;-69
2021/12/21 03:19:08;;;;;;;15.60;9.80;;;3.80;70.70;;;;;;4997087;28;20034;-70
2021/12/21 03:21:36;;;;;;;14.57;9.37;;;3.70;70.60;;;;;;4996759;28;20027;-70
2021/12/21 03:24:03;;;;;;;16.87;10.17;;;3.70;71.30;;;;;;4996846;28;20390;-70
2021/12/21 03:26:29;;;;;;;15.57;9.67;;;3.60;70.90;;;;;;4996681;28;20447;-70
2021/12/21 03:28:55;;;;;;;15.10;9.50;;;3.60;70.90;;;;;;4996802;28;20101;-70
2021/12/21 03:31:21;;;;;;;15.33;9.73;;;3.60;71.10;;;;;;4996808;28;20570;-70
2021/12/21 03:33:48;;;;;;;17.30;9.23;;;3.60;71.40;;;;;;4996748;28;20081;-70
2021/12/21 03:36:16;;;;;;;14.17;9.73;;;3.60;71.20;;;;;;4996635;28;20073;-70
2021/12/21 03:38:50;;;;;;;15.37;9.33;;;3.60;71.50;;;;;;4996841;28;20022;-70
2021/12/21 03:41:18;;;;;;;14.97;9.27;;;3.70;71.10;;;;;;4996701;28;20034;-70
2021/12/21 03:43:44;;;;;;;14.67;9.57;;;3.80;70.90;;;;;;4996461;28;20019;-69
2021/12/21 03:46:12;;;;;;;14.23;9.37;;;3.80;70.00;;;;;;4996544;28;20030;-70
2021/12/21 03:48:43;;;;;;;13.40;9.87;;;3.80;70.40;;;;;;4996624;28;20018;-70
2021/12/21 03:51:10;;;;;;;13.47;9.10;;;3.80;69.60;;;;;;4996217;28;20026;-70
2021/12/21 03:53:36;;;;;;;13.63;9.33;;;3.70;69.90;;;;;;4996344;28;20027;-70
2021/12/21 03:56:37;;;;;;;16.20;9.90;;;3.70;70.70;;;;;;4978791;28;20391;-70
2021/12/21 03:58:49;;;;;;;14.20;10.10;;;3.70;71.50;;;;;;4981563;28;20042;-71
2021/12/21 04:01:15;;;;;;;14.70;10.03;;;3.60;71.80;;;;;;4996298;28;20167;-70
2021/12/21 04:03:41;;;;;;;15.63;9.73;;;3.60;71.60;;;;;;4996048;28;20110;-70
2021/12/21 04:06:07;;;;;;;16.23;10.27;;;3.50;71.00;;;;;;4996208;28;20034;-70
2021/12/21 04:08:34;;;;;;;13.97;9.67;;;3.40;71.40;;;;;;4996158;28;20058;-69
2021/12/21 04:11:01;;;;;;;14.20;9.40;;;3.40;71.60;;;;;;4995963;28;20399;-70
2021/12/21 04:13:27;;;;;;;14.60;10.10;;;3.50;71.60;;;;;;4996153;28;20030;-70
2021/12/21 04:15:53;;;;;;;15.37;10.10;;;3.50;71.40;;;;;;4996025;28;20038;-70
2021/12/21 04:18:22;;;;;;;13.87;9.60;;;3.60;70.90;;;;;;4996092;28;20101;-70
2021/12/21 04:20:48;;;;;;;13.83;9.60;;;3.60;70.70;;;;;;4995848;28;20117;-69
2021/12/21 04:23:14;;;;;;;13.20;8.90;;;3.70;70.40;;;;;;4995721;28;20101;-70
2021/12/21 04:25:40;;;;;;;13.43;9.30;;;3.70;70.80;;;;;;4995804;28;20101;-70
2021/12/21 04:28:05;;;;;;;14.13;8.90;;;3.70;71.00;;;;;;4995381;28;20053;-70
2021/12/21 04:30:31;;;;;;;13.10;9.17;;;3.70;70.50;;;;;;4995643;28;20384;-70
2021/12/21 04:32:57;;;;;;;11.10;7.53;;;3.70;70.20;;;;;;4995662;28;20030;-70
2021/12/21 04:35:22;;;;;;;13.37;8.40;;;3.80;69.30;;;;;;4995388;28;20086;-70
2021/12/21 04:37:55;;;;;;;14.67;7.53;;;3.90;69.60;;;;;;4995605;28;20022;-70
2021/12/21 04:40:25;;;;;;;12.45;7.45;;;4.00;69.00;;;;;;4995866;28;20033;-70
2021/12/21 04:42:52;;;;;;;11.50;7.90;;;4.00;69.30;;;;;;4995407;28;20022;-70
2021/12/21 04:45:17;;;;;;;12.30;7.67;;;4.00;69.60;;;;;;4995410;28;20026;-70
2021/12/21 04:47:43;;;;;;;10.67;7.60;;;4.00;69.20;;;;;;4995459;28;20106;-70
2021/12/21 04:50:10;;;;;;;13.00;7.83;;;4.10;68.60;;;;;;4995084;28;20101;-70
2021/12/21 04:52:36;;;;;;;11.53;8.03;;;4.20;68.40;;;;;;4995358;28;20029;-70
2021/12/21 04:55:03;;;;;;;10.57;6.87;;;4.10;68.30;;;;;;4995144;28;20023;-71
2021/12/21 04:57:28;;;;;;;11.30;7.60;;;4.20;68.90;;;;;;4995233;28;20031;-71
2021/12/21 04:59:54;;;;;;;10.97;7.57;;;4.20;68.80;;;;;;4995637;28;20023;-71
2021/12/21 05:02:21;;;;;;;11.87;7.80;;;4.20;69.50;;;;;;4995021;28;20030;-70
2021/12/21 05:04:47;;;;;;;12.93;8.10;;;4.20;69.70;;;;;;4995088;28;20089;-70
2021/12/21 05:07:16;;;;;;;12.00;7.83;;;4.20;71.20;;;;;;4977535;28;20406;-71
2021/12/21 05:09:44;;;;;;;11.83;8.10;;;4.20;70.30;;;;;;4994797;28;20460;-70
2021/12/21 05:12:13;;;;;;;11.60;8.13;;;4.20;70.70;;;;;;4994669;28;20027;-71
2021/12/21 05:14:39;;;;;;;12.97;8.63;;;4.20;70.20;;;;;;4994520;28;20030;-71
2021/12/21 05:17:05;;;;;;;12.00;8.20;;;4.20;70.20;;;;;;4994616;28;20116;-70
2021/12/21 05:19:32;;;;;;;13.30;8.57;;;4.20;69.60;;;;;;4994925;28;20026;-71
2021/12/21 05:21:57;;;;;;;13.73;8.63;;;4.30;69.70;;;;;;4994792;28;20034;-70
2021/12/21 05:24:23;;;;;;;11.80;7.73;;;4.30;70.20;;;;;;4994557;28;20031;-71
2021/12/21 05:26:49;;;;;;;14.87;7.63;;;4.40;69.90;;;;;;4994963;28;20108;-69
2021/12/21 05:29:15;;;;;;;10.53;7.07;;;4.30;69.30;;;;;;4994866;28;20467;-71
2021/12/21 05:31:41;;;;;;;12.40;7.20;;;4.40;69.10;;;;;;4994581;28;20033;-70
2021/12/21 05:34:07;;;;;;;13.07;7.57;;;4.40;68.60;;;;;;4994203;28;20458;-71
2021/12/21 05:36:32;;;;;;;10.73;7.17;;;4.40;67.80;;;;;;4976904;28;20137;-70
2021/12/21 05:39:03;;;;;;;9.50;7.30;;;4.50;68.40;;;;;;4994081;28;20023;-70
2021/12/21 05:44:15;;;;;;;13.07;8.20;;;4.50;68.50;;;;;;4994297;28;20041;-70
2021/12/21 05:46:41;;;;;;;11.63;7.33;;;4.50;68.90;;;;;;4994258;28;20023;-70
2021/12/21 05:49:07;;;;;;;10.33;7.47;;;4.40;68.40;;;;;;4994232;28;20027;-70
2021/12/21 05:51:33;;;;;;;10.33;7.00;;;4.50;68.30;;;;;;4994129;28;20108;-71
2021/12/21 05:53:59;;;;;;;11.63;7.80;;;4.40;68.60;;;;;;4994176;28;20034;-71
2021/12/21 05:56:24;;;;;;;12.97;7.63;;;4.40;68.70;;;;;;4994014;28;20403;-71
2021/12/21 05:58:50;;;;;;;10.30;6.77;;;4.30;68.60;;;;;;4994215;28;20031;-71
2021/12/21 06:01:16;;;;;;;12.10;7.30;;;4.40;69.10;;;;;;4994014;28;20109;-70
2021/12/21 06:03:42;;;;;;;11.97;7.23;;;4.40;69.10;;;;;;4993678;28;20030;-70
2021/12/21 06:06:12;;;;;;;11.80;7.70;;;4.30;68.20;;;;;;4994093;28;20398;-72
2021/12/21 06:08:38;;;;;;;11.00;6.93;;;4.40;68.90;;;;;;4994110;28;20438;-70
2021/12/21 06:11:06;;;;;;;13.63;7.63;;;4.40;69.20;;;;;;4976615;28;20061;-70
2021/12/21 06:26:59;;;;;;;10.87;7.13;;;4.40;71.00;;;;;;4993550;28;20395;-70
2021/12/21 06:29:25;;;;;;;10.60;6.90;;;4.40;70.90;;;;;;4993771;28;20026;-71
2021/12/21 06:31:51;;;;;;;15.83;7.23;;;4.40;69.30;;;;;;4993594;28;20042;-70
2021/12/21 06:34:17;;;;;;;13.17;7.30;;;4.40;69.60;;;;;;4993287;28;20088;-70
2021/12/21 06:36:43;;;;;;;10.97;7.30;;;4.40;69.70;;;;;;4993665;28;20042;-69
2021/12/21 06:39:10;;;;;;;14.87;7.50;;;4.50;69.70;;;;;;4993532;28;20019;-70
2021/12/21 06:41:36;;;;;;;12.07;7.60;;;4.50;70.10;;;;;;4993586;28;20041;-72
2021/12/21 06:44:04;;;;;;;13.57;7.00;;;4.50;69.20;;;;;;4993550;28;20026;-70
2021/12/21 06:51:54;;;;;;;14.37;8.00;;;4.50;70.10;;;;;;4995871;28;20399;-70
2021/12/21 06:54:20;;;;;;;17.83;8.23;;;4.50;70.00;;;;;;4996967;28;20386;-70
2021/12/21 06:56:46;;;;;;;22.20;8.37;;;4.50;69.80;;;;;;4997309;28;20118;-70
2021/12/21 06:59:12;;;;;;;16.47;8.13;;;4.60;70.00;;;;;;4997252;28;20101;-70
2021/12/21 07:01:39;;;;;;;10.93;7.33;;;4.60;69.50;;;;;;4997224;28;20101;-70
2021/12/21 07:04:07;;;;;;;12.07;6.53;;;4.60;69.30;;;;;;4997089;28;20027;-70
2021/12/21 07:06:36;;;;;;;14.70;7.90;;;4.60;69.40;;;;;;4997115;28;20495;-71
2021/12/21 07:10:06;;;;;;;12.00;7.30;;;4.60;69.10;;;;;;4996798;28;20077;-70
2021/12/21 07:18:01;;;;;;;11.47;6.97;;;4.60;69.80;;;;;;4987790;28;20416;-70
2021/12/21 07:20:15;;;;;;;10.50;6.63;;;4.60;68.90;;;;;;4996767;28;20042;-71
2021/12/21 07:22:41;;;;;;;12.70;6.97;;;4.60;70.00;;;;;;4996536;28;20394;-71
2021/12/21 07:25:07;;;;;;;11.83;6.97;;;4.60;69.90;;;;;;4996803;28;20042;-70
2021/12/21 07:27:33;;;;;;;12.37;6.87;;;4.60;69.80;;;;;;4996755;28;20034;-70
2021/12/21 07:29:58;;;;;;;12.97;8.20;;;4.60;69.90;;;;;;4996857;28;20518;-70
2021/12/21 07:32:24;;;;;;;12.87;7.20;;;4.70;69.50;;;;;;4996609;28;20022;-70
2021/12/21 07:34:50;;;;;;;15.23;6.87;;;4.70;69.30;;;;;;4996728;28;20054;-70
2021/12/21 07:37:15;;;;;;;18.97;7.40;;;4.70;68.10;;;;;;4996475;28;20042;-70
2021/12/21 07:39:41;;;;;;;13.30;7.07;;;4.80;67.80;;;;;;4996223;28;20494;-70
2021/12/21 07:42:07;;;;;;;12.77;7.27;;;4.80;66.90;;;;;;4996559;28;20030;-70
2021/12/21 07:44:33;;;;;;;8.63;5.77;;;4.90;66.80;;;;;;4979005;28;20081;-71
2021/12/21 07:46:59;;;;;;;10.63;6.93;;;5.00;66.70;;;;;;4996550;28;20027;-70
2021/12/21 07:49:25;;;;;;;11.17;6.60;;;5.00;65.90;;;;;;4996540;28;20467;-71
2021/12/21 07:51:51;;;;;;;11.37;6.80;;;5.00;66.20;;;;;;4996311;28;20038;-70
2021/12/21 07:54:21;;;;;;;10.60;6.50;;;5.00;66.30;;;;;;4996257;28;20026;-70
2021/12/21 07:56:47;;;;;;;12.50;7.03;;;5.10;65.60;;;;;;4996006;28;20061;-71
2021/12/21 07:59:13;;;;;;;13.63;6.90;;;5.10;65.60;;;;;;4995958;28;20162;-70
2021/12/21 08:01:39;;;;;;;14.57;7.00;;;5.10;66.50;;;;;;4996196;28;20109;-70
2021/12/21 08:04:07;;;;;;;14.20;7.10;;;5.10;66.80;;;;;;4995299;28;20475;-70
2021/12/21 08:06:34;;;;;;;14.03;6.97;;;5.10;66.70;;;;;;4996307;28;20019;-71
2021/12/21 08:09:02;;;;;;;13.13;6.80;;;5.10;66.50;;;;;;4995962;28;20022;-70
2021/12/21 08:12:11;;;;;;;16.03;8.27;;;5.10;67.10;;;;;;4996109;28;20026;-70
2021/12/21 08:14:14;;;;;;;12.13;6.63;;;5.10;67.60;;;;;;4996082;28;20041;-70
2021/12/21 08:16:40;;;;;;;12.30;6.97;;;5.10;67.20;;;;;;4995933;28;20501;-71
2021/12/21 08:19:05;;;;;;;13.47;6.60;;;5.10;66.50;;;;;;4996049;28;20058;-69
2021/12/21 08:21:31;;;;;;;9.57;6.03;;;5.20;65.90;;;;;;4995712;28;20464;-70
2021/12/21 08:23:57;;;;;;;9.47;5.97;;;5.20;65.60;;;;;;4995659;28;20058;-70
2021/12/21 08:26:23;;;;;;;12.50;7.07;;;5.30;65.00;;;;;;4995578;28;20446;-70
2021/12/21 08:28:49;;;;;;;11.53;7.83;;;5.30;65.20;;;;;;4995502;28;20391;-69
2021/12/21 08:31:16;;;;;;;14.93;8.27;;;5.40;65.40;;;;;;4995823;28;20038;-70
2021/12/21 08:33:43;;;;;;;14.13;6.97;;;5.40;65.40;;;;;;4995383;28;20129;-70
2021/12/21 08:36:10;;;;;;;16.40;7.40;;;5.40;65.30;;;;;;4995637;28;20081;-69
2021/12/21 08:38:38;;;;;;;12.27;7.47;;;5.40;65.00;;;;;;4995699;28;20430;-69
2021/12/21 08:41:04;;;;;;;13.33;7.87;;;5.50;64.90;;;;;;4995771;28;20031;-69
2021/12/21 08:43:32;;;;;;;13.23;7.27;;;5.50;64.80;;;;;;4995587;28;20030;-69
2021/12/21 08:45:59;;;;;;;11.07;7.00;;;5.50;64.60;;;;;;4995272;28;20018;-69
2021/12/21 08:48:26;;;;;;;12.37;6.93;;;5.50;64.50;;;;;;4995220;28;20026;-71
2021/12/21 08:50:54;;;;;;;10.87;7.47;;;5.50;64.30;;;;;;4995303;28;20057;-70
2021/12/21 08:53:21;;;;;;;11.17;8.03;;;5.50;64.20;;;;;;4995123;28;20022;-70
2021/12/21 08:55:46;;;;;;;12.37;7.30;;;5.50;64.20;;;;;;4994941;28;20038;-70
2021/12/21 08:58:13;;;;;;;10.17;7.17;;;5.50;64.30;;;;;;4995037;28;20018;-69
2021/12/21 09:00:40;;;;;;;13.50;7.67;;;5.60;64.50;;;;;;4995256;28;20423;-67
2021/12/21 09:03:07;;;;;;;12.40;7.07;;;5.60;64.90;;;;;;4995003;28;20030;-68
2021/12/21 09:05:33;;;;;;;14.33;6.57;;;5.60;64.80;;;;;;4995086;28;20025;-68
2021/12/21 09:08:01;;;;;;;10.33;7.40;;;5.70;64.80;;;;;;4994853;28;20105;-67
2021/12/21 09:10:29;;;;;;;13.30;7.07;;;5.70;64.80;;;;;;4995116;28;20422;-68
2021/12/21 09:12:55;;;;;;;21.27;7.00;;;5.70;64.50;;;;;;4994905;28;20101;-68
2021/12/21 09:15:22;;;;;;;17.93;6.50;;;5.70;64.10;;;;;;4993737;28;20471;-68
2021/12/21 09:17:48;;;;;;;12.60;6.53;;;5.70;64.00;;;;;;4994707;28;20109;-68
2021/12/21 09:20:18;;;;;;;11.13;6.63;;;5.70;63.80;;;;;;4994801;28;20025;-68
2021/12/21 09:22:43;;;;;;;15.53;6.97;;;5.80;63.80;;;;;;4993479;28;20022;-68
2021/12/21 09:25:10;;;;;;;11.53;6.40;;;5.80;63.60;;;;;;4993490;28;20023;-68
2021/12/21 09:27:37;;;;;;;13.47;6.43;;;5.80;62.90;;;;;;4976419;28;20022;-67
2021/12/21 09:30:05;;;;;;;11.30;6.33;;;5.90;62.90;;;;;;4993769;28;20101;-68
2021/12/21 09:32:30;;;;;;;11.10;6.20;;;5.90;63.00;;;;;;4994238;28;20023;-68
2021/12/21 09:34:56;;;;;;;10.27;5.80;;;5.90;62.40;;;;;;4994614;28;20046;-68
2021/12/21 09:37:22;;;;;;;9.73;6.27;;;5.90;62.50;;;;;;4994283;28;20038;-68
2021/12/21 09:39:54;;;;;;;17.67;5.70;;;5.90;62.70;;;;;;4994492;28;20028;-68
2021/12/21 09:42:22;;;;;;;9.05;5.53;;;5.90;62.40;;;;;;4994220;28;20027;-67
2021/12/21 09:44:48;;;;;;;15.97;6.00;;;5.90;61.10;;;;;;4994622;28;20027;-67
2021/12/21 09:47:15;;;;;;;9.87;5.03;;;6.00;60.50;;;;;;4994248;28;20014;-67
2021/12/21 09:49:43;;;;;;;12.20;5.33;;;6.00;60.90;;;;;;4994518;28;20023;-67
2021/12/21 09:52:11;;;;;;;9.60;5.23;;;6.00;61.40;;;;;;4994327;28;20029;-66
2021/12/21 09:54:38;;;;;;;10.40;5.63;;;6.00;61.40;;;;;;4993886;28;20037;-67
2021/12/21 09:57:05;;;;;;;9.10;5.60;;;6.00;61.40;;;;;;4994111;28;20030;-67
2021/12/21 09:59:31;;;;;;;14.60;5.67;;;6.10;61.60;;;;;;4994240;28;20019;-67
2021/12/21 10:01:57;;;;;;;9.20;5.83;;;6.10;62.00;;;;;;4994166;28;20030;-67
2021/12/21 10:04:28;;;;;;;10.57;5.73;;;6.10;62.20;;;;;;4999872;28;20033;-68
2021/12/21 10:06:56;;;;;;;11.63;6.43;;;6.10;62.00;;;;;;4996668;28;20025;-68
2021/12/21 10:09:33;;;;;;;9.60;7.27;;;6.10;62.20;;;;;;4992515;28;20072;-68
2021/12/21 10:11:59;;;;;;;14.20;7.33;;;6.20;62.30;;;;;;4991525;28;20026;-67
2021/12/21 10:14:26;;;;;;;15.33;9.30;;;6.10;62.20;;;;;;4992267;28;20079;-67
2021/12/21 10:17:04;;;;;;;22.60;11.57;;;6.20;62.70;;;;;;4992826;28;20046;-68
2021/12/21 10:19:30;;;;;;;20.53;12.50;;;6.20;62.60;;;;;;4993991;28;20360;-68
2021/12/21 10:21:56;;;;;;;17.07;10.83;;;6.20;62.50;;;;;;4993726;28;20077;-68
2021/12/21 10:24:26;;;;;;;21.13;9.63;;;6.20;62.40;;;;;;4993825;28;20014;-68
2021/12/21 10:26:54;;;;;;;15.87;9.67;;;6.20;62.70;;;;;;4992101;28;20033;-68
2021/12/21 10:29:19;;;;;;;19.30;9.37;;;6.20;62.60;;;;;;4991775;28;20028;-68
2021/12/21 10:31:48;;;;;;;16.60;9.63;;;6.20;62.60;;;;;;4993720;28;20394;-68
2021/12/21 10:34:18;;;;;;;14.63;8.87;;;6.20;62.60;;;;;;4992314;28;20030;-68
2021/12/21 10:36:51;;;;;;;17.27;8.33;;;6.20;62.70;;;;;;4992716;28;20038;-68
2021/12/21 10:39:26;;;;;;;11.90;7.40;;;6.20;62.80;;;;;;4993029;28;20029;-68
2021/12/21 10:41:59;;;;;;;10.50;6.93;;;6.20;62.80;;;;;;4993596;28;20109;-68
2021/12/21 10:44:25;;;;;;;12.60;6.68;;;6.20;63.40;;;;;;4993520;28;20030;-69
2021/12/21 10:46:53;;;;;;;12.17;5.70;;;6.20;63.10;;;;;;4992864;28;20044;-69
2021/12/21 10:49:25;;;;;;;10.60;6.20;;;6.20;62.80;;;;;;4993291;28;20376;-69
2021/12/21 10:52:01;;;;;;;10.50;6.20;;;6.20;62.40;;;;;;4993315;28;20031;-68
2021/12/21 10:54:43;;;;;;;15.97;6.00;;;6.20;62.00;;;;;;4993254;28;20027;-68
2021/12/21 10:57:16;;;;;;;12.85;5.90;;;6.20;62.70;;;;;;4993189;28;20042;-68
2021/12/21 10:59:45;;;;;;;12.23;5.47;;;6.20;62.60;;;;;;4993481;28;20426;-69
2021/12/21 11:02:22;;;;;;;10.00;5.53;;;6.30;62.10;;;;;;4993399;28;20386;-68
2021/12/21 11:04:54;;;;;;;8.03;5.00;;;6.30;61.60;;;;;;4993396;28;20471;-68
2021/12/21 11:07:37;;;;;;;7.67;5.00;;;6.30;60.90;;;;;;4993389;28;20073;-68
2021/12/21 11:10:15;;;;;;;8.77;5.87;;;6.30;60.60;;;;;;4993362;28;20026;-68
2021/12/21 11:12:44;;;;;;;9.57;4.97;;;6.30;61.00;;;;;;4993490;28;20041;-68
2021/12/21 11:15:16;;;;;;;10.67;5.57;;;6.30;60.50;;;;;;4993192;28;20023;-68
2021/12/21 11:17:42;;;;;;;11.93;6.60;;;6.40;60.70;;;;;;4993208;28;20034;-68
2021/12/21 11:20:10;;;;;;;12.90;7.13;;;6.40;60.20;;;;;;4993185;28;20093;-68
2021/12/21 11:22:39;;;;;;;15.83;8.73;;;6.40;60.00;;;;;;4993148;28;20462;-68
2021/12/21 11:25:05;;;;;;;12.13;7.40;;;6.40;60.00;;;;;;4993311;28;20130;-68
2021/12/21 11:27:34;;;;;;;9.43;5.83;;;6.40;60.00;;;;;;4993115;28;20030;-68
2021/12/21 11:30:02;;;;;;;13.53;7.30;;;6.40;59.70;;;;;;4993226;28;20038;-68
2021/12/21 11:32:30;;;;;;;10.30;6.03;;;6.40;60.20;;;;;;4993092;28;20039;-68
2021/12/21 11:37:39;;;;;;;12.45;6.50;;;6.40;60.30;;;;;;4993808;28;20046;-68
2021/12/21 11:40:07;;;;;;;11.90;6.97;;;6.40;60.40;;;;;;4996322;28;20054;-72
2021/12/21 11:42:52;;;;;;;12.43;6.20;;;6.40;61.00;;;;;;4996477;28;21357;-72
2021/12/21 11:45:30;;;;;;;11.77;6.50;;;6.40;60.00;;;;;;4996606;28;20122;-72
2021/12/21 11:48:12;;;;;;;10.23;5.90;;;6.40;59.90;;;;;;4996207;28;20117;-71
2021/12/21 11:50:43;;;;;;;10.30;5.67;;;6.40;60.10;;;;;;4996172;28;20031;-71
2021/12/21 11:53:13;;;;;;;13.70;7.30;;;6.40;59.90;;;;;;4996009;28;20026;-71
2021/12/21 11:55:42;;;;;;;11.23;5.93;;;6.40;60.10;;;;;;4995894;28;20114;-72
2021/12/21 11:58:14;;;;;;;12.70;7.57;;;6.40;59.70;;;;;;4995968;28;20072;-72
2021/12/21 12:00:47;;;;;;;19.13;9.48;;;6.40;59.60;;;;;;4995753;28;20019;-72
2021/12/21 12:03:19;;;;;;;17.27;8.50;;;6.40;59.70;;;;;;4995752;28;20082;-71
2021/12/21 12:06:07;;;;;;;11.32;6.57;;;6.40;59.60;;;;;;4996311;28;20037;-71
2021/12/21 12:08:57;;;;;;;13.83;7.90;;;6.50;59.50;;;;;;4996045;28;20029;-71
2021/12/21 12:11:28;;;;;;;16.90;7.20;;;6.40;59.70;;;;;;4995914;28;20546;-71
2021/12/21 12:14:04;;;;;;;15.30;9.50;;;6.40;59.70;;;;;;4995858;28;20418;-71
2021/12/21 12:16:50;;;;;;;10.83;6.73;;;6.50;60.00;;;;;;4995667;28;20073;-71
2021/12/21 12:19:21;;;;;;;15.70;7.80;;;6.40;60.10;;;;;;4996004;28;20095;-71
2021/12/21 12:21:55;;;;;;;14.73;7.00;;;6.50;60.00;;;;;;4995761;28;20054;-71
2021/12/21 12:24:24;;;;;;;18.10;9.63;;;6.50;60.00;;;;;;4993392;28;20018;-71
2021/12/21 12:26:59;;;;;;;15.50;6.53;;;6.50;60.20;;;;;;4989271;28;20026;-71
2021/12/21 12:29:25;;;;;;;13.13;7.73;;;6.50;60.20;;;;;;4992232;28;20018;-71
2021/12/21 12:32:05;;;;;;;12.60;7.23;;;6.50;60.60;;;;;;4993445;28;20022;-70
2021/12/21 12:34:33;;;;;;;17.40;7.83;;;6.50;60.70;;;;;;4992999;28;20046;-72
2021/12/21 12:37:12;;;;;;;13.63;7.23;;;6.40;60.60;;;;;;4992556;28;20121;-72
2021/12/21 12:39:40;;;;;;;14.27;7.73;;;6.40;60.60;;;;;;4992855;28;20026;-71
2021/12/21 12:42:28;;;;;;;14.93;8.30;;;6.40;60.70;;;;;;4992837;28;20022;-71
2021/12/21 12:45:10;;;;;;;13.43;8.73;;;6.40;60.80;;;;;;4992907;28;20031;-71
2021/12/21 12:47:44;;;;;;;15.00;8.95;;;6.40;60.90;;;;;;4993909;28;20085;-71
2021/12/21 12:50:32;;;;;;;15.43;7.80;;;6.40;61.00;;;;;;4994105;28;20035;-72
2021/12/21 12:53:05;;;;;;;8.97;5.90;;;6.40;61.20;;;;;;4993965;28;20041;-72
2021/12/21 12:55:42;;;;;;;12.20;5.43;;;6.40;60.90;;;;;;4995045;28;20035;-72
2021/12/21 12:58:15;;;;;;;8.70;5.23;;;6.40;60.40;;;;;;4994902;28;20026;-71
2021/12/21 13:00:44;;;;;;;8.65;5.22;;;6.40;60.70;;;;;;4995035;28;20022;-72
2021/12/21 13:03:11;;;;;;;10.70;5.43;;;6.40;61.30;;;;;;4994173;28;20027;-71
2021/12/21 13:05:43;;;;;;;9.77;5.60;;;6.30;61.40;;;;;;4994667;28;20546;-71
2021/12/21 13:08:12;;;;;;;12.15;5.72;;;6.30;61.70;;;;;;4994973;28;20032;-71
2021/12/21 13:10:51;;;;;;;10.43;5.93;;;6.30;61.50;;;;;;4994814;28;20026;-72
2021/12/21 13:13:18;;;;;;;7.70;5.17;;;6.30;61.50;;;;;;4994401;28;20529;-71
2021/12/21 13:15:46;;;;;;;16.17;5.40;;;6.30;61.80;;;;;;4994731;28;20482;-71
2021/12/21 13:18:13;;;;;;;11.63;5.13;;;6.30;61.00;;;;;;4994880;28;20471;-71
2021/12/21 13:20:41;;;;;;;9.77;4.80;;;6.30;60.50;;;;;;4994773;28;20034;-71
2021/12/21 13:23:24;;;;;;;9.27;5.00;;;6.30;60.00;;;;;;4994619;28;20037;-72
2021/12/21 13:26:04;;;;;;;11.10;6.32;;;6.30;60.40;;;;;;4993318;28;20026;-71
2021/12/21 13:28:43;;;;;;;10.27;5.20;;;6.30;61.10;;;;;;4994129;28;20030;-71
2021/12/21 13:31:09;;;;;;;8.70;4.73;;;6.30;61.00;;;;;;4993689;28;20387;-71
2021/12/21 13:33:40;;;;;;;11.07;4.77;;;6.40;61.30;;;;;;4993868;28;20034;-72
2021/12/21 13:36:07;;;;;;;12.10;4.50;;;6.30;61.40;;;;;;4994414;28;20038;-71
2021/12/21 13:38:36;;;;;;;8.23;4.70;;;6.40;62.30;;;;;;4993996;28;20026;-72
2021/12/21 13:41:04;;;;;;;10.00;4.90;;;6.40;62.20;;;;;;4993377;28;20097;-71
2021/12/21 13:43:30;;;;;;;18.93;5.80;;;6.30;62.70;;;;;;4992202;28;20482;-71
2021/12/21 13:46:07;;;;;;;16.87;6.30;;;6.30;62.40;;;;;;4993282;28;20034;-71
2021/12/21 13:48:35;;;;;;;13.40;6.43;;;6.40;62.20;;;;;;4993740;28;20518;-71
2021/12/21 13:51:08;;;;;;;13.30;6.33;;;6.30;62.70;;;;;;4993187;28;20543;-71
2021/12/21 13:53:46;;;;;;;12.13;6.17;;;6.30;62.70;;;;;;4993546;28;20467;-71
2021/12/21 13:56:26;;;;;;;11.53;6.17;;;6.30;62.60;;;;;;4993790;28;20492;-71